sensor_id;sensor_type;location;lat;lon;timestamp;pressure;altitude;pressure_sealevel;temperature;humidity
70925;BME280;58577;52.410;13.242;2022-11-20T00:00:35;100724.50;;;-1.81;100.00
70925;BME280;58577;52.410;13.242;2022-11-20T00:03:22;100714.66;;;-1.96;100.00
70925;BME280;58577;52.410;13.242;2022-11-20T00:06:11;100711.19;;;-1.96;100.00
70925;BME280;58577;52.410;13.242;2022-11-20T00:08:58;100718.81;;;-1.90;100.00
70925;BME280;58577;52.410;13.242;2022-11-20T00:11:45;100718.81;;;-1.90;100.00
70925;BME280;58577;52.410;13.242;2022-11-20T00:14:31;100710.25;;;-1.95;100.00
70925;BME280;58577;52.410;13.242;2022-11-20T00:17:17;100710.19;;;-1.94;100.00
70925;BME280;58577;52.410;13.242;2022-11-20T00:20:03;100703.44;;;-2.00;100.00
70925;BME280;58577;52.410;13.242;2022-11-20T00:22:49;100708.19;;;-2.08;100.00
70925;BME280;58577;52.410;13.242;2022-11-20T00:25:35;100710.09;;;-2.11;100.00
70925;BME280;58577;52.410;13.242;2022-11-20T00:28:21;100713.66;;;-2.12;100.00
70925;BME280;58577;52.410;13.242;2022-11-20T00:31:10;100702.47;;;-2.18;100.00
70925;BME280;58577;52.410;13.242;2022-11-20T00:33:56;100698.13;;;-2.19;100.00
70925;BME280;58577;52.410;13.242;2022-11-20T00:36:42;100706.34;;;-2.26;100.00
70925;BME280;58577;52.410;13.242;2022-11-20T00:39:28;100707.72;;;-2.18;100.00
70925;BME280;58577;52.410;13.242;2022-11-20T00:42:14;100709.28;;;-2.34;100.00
70925;BME280;58577;52.410;13.242;2022-11-20T00:45:00;100711.41;;;-2.22;100.00
70925;BME280;58577;52.410;13.242;2022-11-20T00:47:45;100711.84;;;-2.32;100.00
70925;BME280;58577;52.410;13.242;2022-11-20T00:50:31;100715.09;;;-2.26;100.00
70925;BME280;58577;52.410;13.242;2022-11-20T00:53:17;100713.13;;;-2.41;100.00
70925;BME280;58577;52.410;13.242;2022-11-20T00:56:09;100711.84;;;-2.32;100.00
70925;BME280;58577;52.410;13.242;2022-11-20T00:58:55;100713.31;;;-2.25;100.00
70925;BME280;58577;52.410;13.242;2022-11-20T01:01:41;100717.72;;;-2.26;100.00
70925;BME280;58577;52.410;13.242;2022-11-20T01:04:27;100719.94;;;-2.37;100.00
70925;BME280;58577;52.410;13.242;2022-11-20T01:07:12;100721.66;;;-2.36;100.00
70925;BME280;58577;52.410;13.242;2022-11-20T01:09:58;100711.00;;;-2.33;100.00
70925;BME280;58577;52.410;13.242;2022-11-20T01:12:44;100716.53;;;-2.39;100.00
70925;BME280;58577;52.410;13.242;2022-11-20T01:15:50;100712.44;;;-2.46;100.00
70925;BME280;58577;52.410;13.242;2022-11-20T01:18:37;100713.22;;;-2.65;100.00
70925;BME280;58577;52.410;13.242;2022-11-20T01:21:35;100704.84;;;-2.74;100.00
70925;BME280;58577;52.410;13.242;2022-11-20T01:24:21;100702.53;;;-2.82;100.00
70925;BME280;58577;52.410;13.242;2022-11-20T01:27:07;100700.31;;;-2.91;100.00
70925;BME280;58577;52.410;13.242;2022-11-20T01:29:53;100700.31;;;-2.91;100.00
70925;BME280;58577;52.410;13.242;2022-11-20T01:32:39;100702.25;;;-2.97;100.00
70925;BME280;58577;52.410;13.242;2022-11-20T01:35:25;100707.22;;;-3.11;100.00
70925;BME280;58577;52.410;13.242;2022-11-20T01:38:10;100705.59;;;-3.15;100.00
70925;BME280;58577;52.410;13.242;2022-11-20T01:40:56;100700.59;;;-3.21;100.00
70925;BME280;58577;52.410;13.242;2022-11-20T01:43:42;100704.22;;;-3.24;100.00
70925;BME280;58577;52.410;13.242;2022-11-20T01:46:28;100704.50;;;-3.31;100.00
70925;BME280;58577;52.410;13.242;2022-11-20T01:49:25;100703.72;;;-3.33;100.00
70925;BME280;58577;52.410;13.242;2022-11-20T01:52:26;100693.91;;;-3.28;100.00
70925;BME280;58577;52.410;13.242;2022-11-20T01:55:18;100706.88;;;-3.25;100.00
70925;BME280;58577;52.410;13.242;2022-11-20T01:58:04;100693.72;;;-3.24;100.00
70925;BME280;58577;52.410;13.242;2022-11-20T02:00:51;100692.69;;;-3.20;100.00
70925;BME280;58577;52.410;13.242;2022-11-20T02:03:37;100687.56;;;-3.01;100.00
70925;BME280;58577;52.410;13.242;2022-11-20T02:06:26;100680.59;;;-3.02;100.00
70925;BME280;58577;52.410;13.242;2022-11-20T02:09:13;100685.91;;;-3.03;100.00
70925;BME280;58577;52.410;13.242;2022-11-20T02:12:00;100684.50;;;-3.12;100.00
70925;BME280;58577;52.410;13.242;2022-11-20T02:14:46;100682.56;;;-3.07;100.00
70925;BME280;58577;52.410;13.242;2022-11-20T02:17:32;100681.78;;;-2.88;100.00
70925;BME280;58577;52.410;13.242;2022-11-20T02:20:18;100677.84;;;-2.99;100.00
70925;BME280;58577;52.410;13.242;2022-11-20T02:26:13;100675.94;;;-2.95;100.00
70925;BME280;58577;52.410;13.242;2022-11-20T02:29:02;100678.63;;;-2.97;100.00
70925;BME280;58577;52.410;13.242;2022-11-20T02:31:48;100677.59;;;-2.92;100.00
70925;BME280;58577;52.410;13.242;2022-11-20T02:34:34;100678.75;;;-3.00;100.00
70925;BME280;58577;52.410;13.242;2022-11-20T02:37:20;100668.81;;;-2.91;100.00
70925;BME280;58577;52.410;13.242;2022-11-20T02:40:07;100671.91;;;-3.04;100.00
70925;BME280;58577;52.410;13.242;2022-11-20T02:42:54;100665.72;;;-3.01;100.00
70925;BME280;58577;52.410;13.242;2022-11-20T02:45:40;100662.66;;;-3.12;100.00
70925;BME280;58577;52.410;13.242;2022-11-20T02:48:26;100665.75;;;-3.03;100.00
70925;BME280;58577;52.410;13.242;2022-11-20T02:51:11;100666.81;;;-3.07;100.00
70925;BME280;58577;52.410;13.242;2022-11-20T02:53:57;100664.91;;;-3.25;100.00
70925;BME280;58577;52.410;13.242;2022-11-20T02:56:43;100666.44;;;-3.20;100.00
70925;BME280;58577;52.410;13.242;2022-11-20T02:59:29;100656.13;;;-3.24;100.00
70925;BME280;58577;52.410;13.242;2022-11-20T03:02:15;100657.19;;;-3.28;100.00
70925;BME280;58577;52.410;13.242;2022-11-20T03:05:01;100658.28;;;-3.34;100.00
70925;BME280;58577;52.410;13.242;2022-11-20T03:07:47;100648.72;;;-3.37;100.00
70925;BME280;58577;52.410;13.242;2022-11-20T03:10:33;100647.16;;;-3.41;100.00
70925;BME280;58577;52.410;13.242;2022-11-20T03:13:18;100653.88;;;-3.33;100.00
70925;BME280;58577;52.410;13.242;2022-11-20T03:16:16;100650.56;;;-3.39;100.00
70925;BME280;58577;52.410;13.242;2022-11-20T03:19:02;100650.44;;;-3.36;100.00
70925;BME280;58577;52.410;13.242;2022-11-20T03:21:48;100648.19;;;-3.45;100.00
70925;BME280;58577;52.410;13.242;2022-11-20T03:24:34;100637.00;;;-3.50;100.00
70925;BME280;58577;52.410;13.242;2022-11-20T03:27:20;100631.25;;;-3.60;100.00
70925;BME280;58577;52.410;13.242;2022-11-20T03:30:07;100634.56;;;-3.54;100.00
70925;BME280;58577;52.410;13.242;2022-11-20T03:32:53;100636.94;;;-3.48;100.00
70925;BME280;58577;52.410;13.242;2022-11-20T03:35:39;100632.19;;;-3.61;100.00
70925;BME280;58577;52.410;13.242;2022-11-20T03:38:25;100639.38;;;-3.66;100.00
70925;BME280;58577;52.410;13.242;2022-11-20T03:41:13;100644.91;;;-3.73;100.00
70925;BME280;58577;52.410;13.242;2022-11-20T03:44:01;100639.56;;;-3.70;100.00
70925;BME280;58577;52.410;13.242;2022-11-20T03:46:48;100638.47;;;-3.65;100.00
70925;BME280;58577;52.410;13.242;2022-11-20T03:49:34;100632.06;;;-3.58;100.00
70925;BME280;58577;52.410;13.242;2022-11-20T03:52:19;100634.22;;;-3.45;100.00
70925;BME280;58577;52.410;13.242;2022-11-20T03:55:06;100631.03;;;-3.31;100.00
70925;BME280;58577;52.410;13.242;2022-11-20T03:57:52;100638.06;;;-3.32;100.00
70925;BME280;58577;52.410;13.242;2022-11-20T04:00:38;100636.72;;;-3.20;100.00
70925;BME280;58577;52.410;13.242;2022-11-20T04:03:25;100625.53;;;-3.25;100.00
70925;BME280;58577;52.410;13.242;2022-11-20T04:06:21;100633.38;;;-3.24;100.00
70925;BME280;58577;52.410;13.242;2022-11-20T04:09:07;100637.31;;;-3.13;100.00
70925;BME280;58577;52.410;13.242;2022-11-20T04:11:53;100634.84;;;-2.96;100.00
70925;BME280;58577;52.410;13.242;2022-11-20T04:14:38;100632.75;;;-3.08;100.00
70925;BME280;58577;52.410;13.242;2022-11-20T04:17:24;100628.28;;;-3.06;100.00
70925;BME280;58577;52.410;13.242;2022-11-20T04:20:10;100637.31;;;-2.91;100.00
70925;BME280;58577;52.410;13.242;2022-11-20T04:22:56;100638.47;;;-2.99;100.00
70925;BME280;58577;52.410;13.242;2022-11-20T04:25:42;100638.47;;;-2.99;100.00
70925;BME280;58577;52.410;13.242;2022-11-20T04:28:28;100630.66;;;-3.00;100.00
70925;BME280;58577;52.410;13.242;2022-11-20T04:31:19;100636.84;;;-3.01;100.00
70925;BME280;58577;52.410;13.242;2022-11-20T04:34:07;100637.53;;;-2.98;100.00
70925;BME280;58577;52.410;13.242;2022-11-20T04:36:53;100635.78;;;-2.97;100.00
70925;BME280;58577;52.410;13.242;2022-11-20T04:39:39;100635.78;;;-2.97;100.00
70925;BME280;58577;52.410;13.242;2022-11-20T04:42:24;100638.09;;;-2.89;100.00
70925;BME280;58577;52.410;13.242;2022-11-20T04:45:16;100641.25;;;-2.81;100.00
70925;BME280;58577;52.410;13.242;2022-11-20T04:48:02;100637.56;;;-2.77;100.00
70925;BME280;58577;52.410;13.242;2022-11-20T04:50:48;100629.81;;;-2.80;100.00
70925;BME280;58577;52.410;13.242;2022-11-20T04:53:33;100626.16;;;-2.76;100.00
70925;BME280;58577;52.410;13.242;2022-11-20T04:56:19;100626.78;;;-2.71;100.00
70925;BME280;58577;52.410;13.242;2022-11-20T04:59:05;100622.59;;;-2.75;100.00
70925;BME280;58577;52.410;13.242;2022-11-20T05:01:51;100619.53;;;-2.64;100.00
70925;BME280;58577;52.410;13.242;2022-11-20T05:04:37;100611.03;;;-2.50;100.00
70925;BME280;58577;52.410;13.242;2022-11-20T05:07:23;100613.22;;;-2.60;100.00
70925;BME280;58577;52.410;13.242;2022-11-20T05:10:09;100609.75;;;-2.61;100.00
70925;BME280;58577;52.410;13.242;2022-11-20T05:12:54;100606.56;;;-2.69;100.00
70925;BME280;58577;52.410;13.242;2022-11-20T05:15:40;100596.00;;;-2.67;100.00
70925;BME280;58577;52.410;13.242;2022-11-20T05:18:26;100601.59;;;-2.54;100.00
70925;BME280;58577;52.410;13.242;2022-11-20T05:21:13;100603.63;;;-2.61;100.00
70925;BME280;58577;52.410;13.242;2022-11-20T05:23:59;100595.56;;;-2.57;100.00
70925;BME280;58577;52.410;13.242;2022-11-20T05:26:45;100604.34;;;-2.58;100.00
70925;BME280;58577;52.410;13.242;2022-11-20T05:29:30;100597.41;;;-2.40;100.00
70925;BME280;58577;52.410;13.242;2022-11-20T05:32:16;100600.19;;;-2.43;100.00
70925;BME280;58577;52.410;13.242;2022-11-20T05:35:02;100597.63;;;-2.44;100.00
70925;BME280;58577;52.410;13.242;2022-11-20T05:37:48;100590.94;;;-2.51;100.00
70925;BME280;58577;52.410;13.242;2022-11-20T05:40:34;100593.88;;;-2.39;100.00
70925;BME280;58577;52.410;13.242;2022-11-20T05:43:20;100592.50;;;-2.47;100.00
70925;BME280;58577;52.410;13.242;2022-11-20T05:46:07;100587.41;;;-2.50;100.00
70925;BME280;58577;52.410;13.242;2022-11-20T05:48:53;100589.09;;;-2.49;100.00
70925;BME280;58577;52.410;13.242;2022-11-20T05:51:39;100590.69;;;-2.45;100.00
70925;BME280;58577;52.410;13.242;2022-11-20T05:54:24;100582.25;;;-2.53;100.00
70925;BME280;58577;52.410;13.242;2022-11-20T05:57:10;100586.28;;;-2.45;100.00
70925;BME280;58577;52.410;13.242;2022-11-20T05:59:56;100588.25;;;-2.50;100.00
70925;BME280;58577;52.410;13.242;2022-11-20T06:02:42;100582.72;;;-2.44;100.00
70925;BME280;58577;52.410;13.242;2022-11-20T06:05:28;100582.97;;;-2.50;100.00
70925;BME280;58577;52.410;13.242;2022-11-20T06:08:14;100581.75;;;-2.41;100.00
70925;BME280;58577;52.410;13.242;2022-11-20T06:11:04;100578.34;;;-2.43;100.00
70925;BME280;58577;52.410;13.242;2022-11-20T06:13:50;100584.22;;;-2.38;100.00
70925;BME280;58577;52.410;13.242;2022-11-20T06:16:36;100588.06;;;-2.45;100.00
70925;BME280;58577;52.410;13.242;2022-11-20T06:19:22;100580.97;;;-2.43;100.00
70925;BME280;58577;52.410;13.242;2022-11-20T06:22:08;100578.19;;;-2.40;100.00
70925;BME280;58577;52.410;13.242;2022-11-20T06:24:54;100591.25;;;-2.39;100.00
70925;BME280;58577;52.410;13.242;2022-11-20T06:27:39;100585.28;;;-2.42;100.00
70925;BME280;58577;52.410;13.242;2022-11-20T06:30:25;100587.34;;;-2.49;100.00
70925;BME280;58577;52.410;13.242;2022-11-20T06:33:11;100584.78;;;-2.50;100.00
70925;BME280;58577;52.410;13.242;2022-11-20T06:35:58;100590.06;;;-2.31;100.00
70925;BME280;58577;52.410;13.242;2022-11-20T06:38:45;100588.16;;;-2.28;100.00
70925;BME280;58577;52.410;13.242;2022-11-20T06:41:31;100588.69;;;-2.40;100.00
70925;BME280;58577;52.410;13.242;2022-11-20T06:44:16;100586.91;;;-2.40;100.00
70925;BME280;58577;52.410;13.242;2022-11-20T06:47:03;100589.91;;;-2.28;100.00
70925;BME280;58577;52.410;13.242;2022-11-20T06:49:49;100581.91;;;-2.25;100.00
70925;BME280;58577;52.410;13.242;2022-11-20T06:52:35;100586.66;;;-2.33;100.00
70925;BME280;58577;52.410;13.242;2022-11-20T06:55:21;100581.88;;;-2.44;100.00
70925;BME280;58577;52.410;13.242;2022-11-20T06:58:06;100587.78;;;-2.39;100.00
70925;BME280;58577;52.410;13.242;2022-11-20T07:00:52;100585.00;;;-2.36;100.00
70925;BME280;58577;52.410;13.242;2022-11-20T07:03:39;100580.28;;;-2.28;100.00
70925;BME280;58577;52.410;13.242;2022-11-20T07:06:25;100584.75;;;-2.30;100.00
70925;BME280;58577;52.410;13.242;2022-11-20T07:09:11;100587.63;;;-2.36;100.00
70925;BME280;58577;52.410;13.242;2022-11-20T07:11:57;100587.63;;;-2.36;100.00
70925;BME280;58577;52.410;13.242;2022-11-20T07:14:42;100587.78;;;-2.39;100.00
70925;BME280;58577;52.410;13.242;2022-11-20T07:17:28;100586.38;;;-2.27;100.00
70925;BME280;58577;52.410;13.242;2022-11-20T07:20:14;100583.75;;;-2.27;100.00
70925;BME280;58577;52.410;13.242;2022-11-20T07:23:01;100579.63;;;-2.33;100.00
70925;BME280;58577;52.410;13.242;2022-11-20T07:25:46;100575.81;;;-2.26;100.00
70925;BME280;58577;52.410;13.242;2022-11-20T07:28:33;100572.38;;;-2.28;100.00
70925;BME280;58577;52.410;13.242;2022-11-20T07:31:19;100568.31;;;-2.35;100.00
70925;BME280;58577;52.410;13.242;2022-11-20T07:34:04;100578.22;;;-2.21;100.00
70925;BME280;58577;52.410;13.242;2022-11-20T07:36:50;100578.34;;;-2.24;100.00
70925;BME280;58577;52.410;13.242;2022-11-20T07:39:36;100574.66;;;-2.20;100.00
70925;BME280;58577;52.410;13.242;2022-11-20T07:42:22;100577.34;;;-2.22;100.00
70925;BME280;58577;52.410;13.242;2022-11-20T07:45:10;100574.72;;;-2.22;100.00
70925;BME280;58577;52.410;13.242;2022-11-20T07:47:56;100577.91;;;-2.15;100.00
70925;BME280;58577;52.410;13.242;2022-11-20T07:50:41;100565.00;;;-2.20;100.00
70925;BME280;58577;52.410;13.242;2022-11-20T07:53:27;100567.47;;;-2.17;100.00
70925;BME280;58577;52.410;13.242;2022-11-20T07:56:13;100559.53;;;-2.15;100.00
70925;BME280;58577;52.410;13.242;2022-11-20T07:58:59;100564.50;;;-2.09;100.00
70925;BME280;58577;52.410;13.242;2022-11-20T08:01:45;100556.59;;;-2.09;100.00
70925;BME280;58577;52.410;13.242;2022-11-20T08:04:31;100554.84;;;-2.08;100.00
70925;BME280;58577;52.410;13.242;2022-11-20T08:07:17;100557.13;;;-2.01;100.00
70925;BME280;58577;52.410;13.242;2022-11-20T08:10:03;100552.59;;;-1.97;100.00
70925;BME280;58577;52.410;13.242;2022-11-20T08:12:50;100551.50;;;-1.93;100.00
70925;BME280;58577;52.410;13.242;2022-11-20T08:15:55;100545.78;;;-1.84;100.00
70925;BME280;58577;52.410;13.242;2022-11-20T08:18:41;100547.22;;;-1.76;100.00
70925;BME280;58577;52.410;13.242;2022-11-20T08:21:27;100544.44;;;-1.73;100.00
70925;BME280;58577;52.410;13.242;2022-11-20T08:24:13;100553.53;;;-1.62;100.00
70925;BME280;58577;52.410;13.242;2022-11-20T08:26:59;100557.81;;;-1.42;100.00
70925;BME280;58577;52.410;13.242;2022-11-20T08:29:45;100553.69;;;-1.47;100.00
70925;BME280;58577;52.410;13.242;2022-11-20T08:32:30;100559.19;;;-1.52;99.88
70925;BME280;58577;52.410;13.242;2022-11-20T08:35:16;100554.00;;;-1.53;100.00
70925;BME280;58577;52.410;13.242;2022-11-20T08:38:03;100552.22;;;-1.53;100.00
70925;BME280;58577;52.410;13.242;2022-11-20T08:40:50;100553.75;;;-1.49;100.00
70925;BME280;58577;52.410;13.242;2022-11-20T08:44:01;100548.88;;;-1.56;99.74
70925;BME280;58577;52.410;13.242;2022-11-20T08:46:47;100554.59;;;-1.66;99.49
70925;BME280;58577;52.410;13.242;2022-11-20T08:49:33;100557.38;;;-1.69;99.68
70925;BME280;58577;52.410;13.242;2022-11-20T08:52:19;100550.50;;;-1.71;100.00
70925;BME280;58577;52.410;13.242;2022-11-20T08:55:06;100557.84;;;-1.61;99.33
70925;BME280;58577;52.410;13.242;2022-11-20T08:57:52;100560.09;;;-1.53;99.10
70925;BME280;58577;52.410;13.242;2022-11-20T09:00:37;100555.09;;;-1.40;99.21
70925;BME280;58577;52.410;13.242;2022-11-20T09:03:23;100554.41;;;-1.44;99.32
70925;BME280;58577;52.410;13.242;2022-11-20T09:06:13;100548.13;;;-1.41;98.45
70925;BME280;58577;52.410;13.242;2022-11-20T09:08:59;100560.69;;;-1.29;97.21
70925;BME280;58577;52.410;13.242;2022-11-20T09:11:45;100551.66;;;-1.23;96.96
70925;BME280;58577;52.410;13.242;2022-11-20T09:14:30;100556.03;;;-1.41;97.23
70925;BME280;58577;52.410;13.242;2022-11-20T09:17:16;100550.25;;;-1.30;97.53
70925;BME280;58577;52.410;13.242;2022-11-20T09:20:03;100554.88;;;-1.35;97.16
70925;BME280;58577;52.410;13.242;2022-11-20T09:22:49;100556.91;;;-1.23;97.07
70925;BME280;58577;52.410;13.242;2022-11-20T09:25:36;100553.97;;;-1.34;97.71
70925;BME280;58577;52.410;13.242;2022-11-20T09:28:21;100552.16;;;-1.34;97.10
70925;BME280;58577;52.410;13.242;2022-11-20T09:31:09;100554.47;;;-1.45;97.57
70925;BME280;58577;52.410;13.242;2022-11-20T09:33:55;100557.66;;;-1.39;97.73
70925;BME280;58577;52.410;13.242;2022-11-20T09:36:41;100553.81;;;-1.31;97.79
70925;BME280;58577;52.410;13.242;2022-11-20T09:39:27;100561.94;;;-1.36;97.38
70925;BME280;58577;52.410;13.242;2022-11-20T09:45:16;100547.63;;;-1.30;98.02
70925;BME280;58577;52.410;13.242;2022-11-20T09:51:51;100545.34;;;-1.38;96.83
70925;BME280;58577;52.410;13.242;2022-11-20T09:54:40;100547.75;;;-1.16;96.00
70925;BME280;58577;52.410;13.242;2022-11-20T09:57:34;100541.81;;;-1.02;96.22
70925;BME280;58577;52.410;13.242;2022-11-20T10:00:21;100543.19;;;-1.12;95.68
70925;BME280;58577;52.410;13.242;2022-11-20T10:03:16;100542.41;;;-1.14;95.78
70925;BME280;58577;52.410;13.242;2022-11-20T10:06:05;100535.22;;;-1.11;96.48
70925;BME280;58577;52.410;13.242;2022-11-20T10:21:26;100533.34;;;-0.91;96.95
70925;BME280;58577;52.410;13.242;2022-11-20T10:24:27;100523.97;;;-0.80;95.61
70925;BME280;58577;52.410;13.242;2022-11-20T10:27:35;100529.34;;;-0.81;94.95
70925;BME280;58577;52.410;13.242;2022-11-20T10:30:24;100530.63;;;-0.72;94.51
70925;BME280;58577;52.410;13.242;2022-11-20T10:33:22;100523.28;;;-0.66;94.61
70925;BME280;58577;52.410;13.242;2022-11-20T10:36:32;100515.09;;;-0.61;92.73
70925;BME280;58577;52.410;13.242;2022-11-20T10:39:44;100519.38;;;-0.76;93.79
70925;BME280;58577;52.410;13.242;2022-11-20T10:42:37;100512.22;;;-0.90;94.74
70925;BME280;58577;52.410;13.242;2022-11-20T10:45:36;100516.53;;;-0.71;94.47
70925;BME280;58577;52.410;13.242;2022-11-20T10:48:27;100510.03;;;-0.82;95.21
70925;BME280;58577;52.410;13.242;2022-11-20T10:51:30;100509.91;;;-0.96;93.83
70925;BME280;58577;52.410;13.242;2022-11-20T10:54:43;100503.03;;;-0.98;95.25
70925;BME280;58577;52.410;13.242;2022-11-20T10:58:04;100493.25;;;-0.96;94.77
70925;BME280;58577;52.410;13.242;2022-11-20T11:01:05;100492.91;;;-0.73;95.07
70925;BME280;58577;52.410;13.242;2022-11-20T11:03:52;100494.09;;;-0.63;94.52
70925;BME280;58577;52.410;13.242;2022-11-20T11:06:42;100493.34;;;-0.49;94.13
70925;BME280;58577;52.410;13.242;2022-11-20T11:09:35;100493.22;;;-0.30;93.05
70925;BME280;58577;52.410;13.242;2022-11-20T11:12:25;100487.88;;;-0.28;90.30
70925;BME280;58577;52.410;13.242;2022-11-20T11:15:24;100497.22;;;0.09;90.42
70925;BME280;58577;52.410;13.242;2022-11-20T11:18:11;100497.97;;;0.43;87.59
70925;BME280;58577;52.410;13.242;2022-11-20T11:21:00;100499.63;;;0.44;85.51
70925;BME280;58577;52.410;13.242;2022-11-20T11:23:47;100488.13;;;0.61;85.68
70925;BME280;58577;52.410;13.242;2022-11-20T11:26:51;100485.09;;;0.67;85.76
70925;BME280;58577;52.410;13.242;2022-11-20T11:29:37;100487.88;;;0.80;84.79
70925;BME280;58577;52.410;13.242;2022-11-20T11:32:23;100485.09;;;0.97;85.40
70925;BME280;58577;52.410;13.242;2022-11-20T11:35:43;100485.09;;;1.12;84.45
70925;BME280;58577;52.410;13.242;2022-11-20T11:38:39;100481.81;;;1.08;84.31
70925;BME280;58577;52.410;13.242;2022-11-20T11:41:29;100482.75;;;1.07;84.00
70925;BME280;58577;52.410;13.242;2022-11-20T11:44:19;100476.81;;;1.18;83.76
70925;BME280;58577;52.410;13.242;2022-11-20T11:47:26;100478.50;;;1.05;82.77
70925;BME280;58577;52.410;13.242;2022-11-20T11:50:18;100480.56;;;1.00;83.01
70925;BME280;58577;52.410;13.242;2022-11-20T11:53:17;100485.06;;;0.83;81.43
70925;BME280;58577;52.410;13.242;2022-11-20T11:56:09;100467.94;;;1.05;83.19
70925;BME280;58577;52.410;13.242;2022-11-20T11:58:57;100467.34;;;1.00;82.66
70925;BME280;58577;52.410;13.242;2022-11-20T12:01:54;100459.63;;;1.11;84.00
70925;BME280;58577;52.410;13.242;2022-11-20T12:05:15;100459.63;;;1.11;83.26
70925;BME280;58577;52.410;13.242;2022-11-20T12:08:06;100455.75;;;1.02;83.34
70925;BME280;58577;52.410;13.242;2022-11-20T12:16:47;100447.88;;;0.72;84.93
70925;BME280;58577;52.410;13.242;2022-11-20T12:19:34;100451.97;;;0.77;85.53
70925;BME280;58577;52.410;13.242;2022-11-20T12:22:30;100454.19;;;0.69;86.40
70925;BME280;58577;52.410;13.242;2022-11-20T12:25:39;100452.13;;;0.74;86.08
70925;BME280;58577;52.410;13.242;2022-11-20T12:34:44;100453.19;;;0.56;87.57
70925;BME280;58577;52.410;13.242;2022-11-20T12:37:50;100440.13;;;0.54;88.29
70925;BME280;58577;52.410;13.242;2022-11-20T12:41:04;100442.69;;;0.40;89.83
70925;BME280;58577;52.410;13.242;2022-11-20T12:44:18;100444.84;;;0.33;90.74
70925;BME280;58577;52.410;13.242;2022-11-20T13:06:21;100434.25;;;0.03;94.17
70925;BME280;58577;52.410;13.242;2022-11-20T13:09:16;100427.31;;;0.02;95.73
70925;BME280;58577;52.410;13.242;2022-11-20T13:12:11;100418.63;;;0.00;95.91
70925;BME280;58577;52.410;13.242;2022-11-20T13:18:01;100418.13;;;-0.23;97.32
70925;BME280;58577;52.410;13.242;2022-11-20T13:20:49;100403.00;;;-0.19;97.56
70925;BME280;58577;52.410;13.242;2022-11-20T13:23:35;100398.50;;;-0.33;97.79
70925;BME280;58577;52.410;13.242;2022-11-20T13:26:22;100400.44;;;-0.21;99.02
70925;BME280;58577;52.410;13.242;2022-11-20T13:29:17;100404.34;;;-0.28;98.17
70925;BME280;58577;52.410;13.242;2022-11-20T13:32:16;100404.69;;;-0.34;98.65
70925;BME280;58577;52.410;13.242;2022-11-20T13:35:04;100401.91;;;-0.31;98.77
70925;BME280;58577;52.410;13.242;2022-11-20T13:37:59;100394.41;;;-0.38;99.24
70925;BME280;58577;52.410;13.242;2022-11-20T13:40:57;100393.63;;;-0.56;99.40
70925;BME280;58577;52.410;13.242;2022-11-20T13:43:44;100389.66;;;-0.64;99.86
70925;BME280;58577;52.410;13.242;2022-11-20T13:46:42;100395.69;;;-0.62;99.58
70925;BME280;58577;52.410;13.242;2022-11-20T13:49:47;100388.50;;;-0.75;100.00
70925;BME280;58577;52.410;13.242;2022-11-20T14:02:11;100397.72;;;-0.51;100.00
70925;BME280;58577;52.410;13.242;2022-11-20T14:04:59;100401.19;;;-0.50;100.00
70925;BME280;58577;52.410;13.242;2022-11-20T14:07:47;100398.56;;;-0.50;100.00
70925;BME280;58577;52.410;13.242;2022-11-20T14:10:34;100402.41;;;-0.40;100.00
70925;BME280;58577;52.410;13.242;2022-11-20T14:13:20;100402.31;;;-0.54;100.00
70925;BME280;58577;52.410;13.242;2022-11-20T14:16:08;100403.66;;;-0.47;100.00
70925;BME280;58577;52.410;13.242;2022-11-20T14:18:55;100390.22;;;-0.43;100.00
70925;BME280;58577;52.410;13.242;2022-11-20T14:21:42;100392.78;;;-0.41;99.75
70925;BME280;58577;52.410;13.242;2022-11-20T14:24:28;100383.69;;;-0.51;99.80
70925;BME280;58577;52.410;13.242;2022-11-20T14:27:18;100391.44;;;-0.48;100.00
70925;BME280;58577;52.410;13.242;2022-11-20T14:30:06;100392.53;;;-0.36;98.91
70925;BME280;58577;52.410;13.242;2022-11-20T14:33:01;100394.41;;;-0.54;99.30
70925;BME280;58577;52.410;13.242;2022-11-20T14:35:50;100398.22;;;-0.60;99.83
70925;BME280;58577;52.410;13.242;2022-11-20T14:38:36;100400.34;;;-0.67;99.94
70925;BME280;58577;52.410;13.242;2022-11-20T14:41:23;100402.03;;;-0.82;100.00
70925;BME280;58577;52.410;13.242;2022-11-20T14:44:09;100400.75;;;-0.90;100.00
70925;BME280;58577;52.410;13.242;2022-11-20T14:46:56;100401.75;;;-0.93;100.00
70925;BME280;58577;52.410;13.242;2022-11-20T14:49:43;100392.78;;;-0.89;100.00
70925;BME280;58577;52.410;13.242;2022-11-20T14:52:29;100395.47;;;-0.90;100.00
70925;BME280;58577;52.410;13.242;2022-11-20T14:55:35;100397.78;;;-0.84;100.00
70925;BME280;58577;52.410;13.242;2022-11-20T14:58:24;100396.34;;;-0.74;100.00
70925;BME280;58577;52.410;13.242;2022-11-20T15:01:12;100398.81;;;-0.71;100.00
70925;BME280;58577;52.410;13.242;2022-11-20T15:04:19;100398.97;;;-0.74;100.00
70925;BME280;58577;52.410;13.242;2022-11-20T15:07:05;100397.28;;;-0.75;100.00
70925;BME280;58577;52.410;13.242;2022-11-20T15:12:52;100385.09;;;-0.77;100.00
70925;BME280;58577;52.410;13.242;2022-11-20T15:15:50;100388.34;;;-0.56;100.00
70925;BME280;58577;52.410;13.242;2022-11-20T15:18:38;100387.78;;;-0.62;100.00
70925;BME280;58577;52.410;13.242;2022-11-20T15:21:25;100387.16;;;-0.67;100.00
70925;BME280;58577;52.410;13.242;2022-11-20T15:24:10;100380.88;;;-0.64;100.00
70925;BME280;58577;52.410;13.242;2022-11-20T15:26:56;100389.22;;;-0.56;98.59
70925;BME280;58577;52.410;13.242;2022-11-20T15:29:42;100388.28;;;-0.55;98.83
70925;BME280;58577;52.410;13.242;2022-11-20T15:32:28;100384.97;;;-0.58;98.60